• Join FlightAware (Why Join?)
  • Login
  • US Flag 
01:47PM EST


 

Airport Tracker/Info


-or-


 

Live Flight TrackerFlight Track Log ✈ SWA1688 ✈ 06-Jul-2013 ✈ KBWI - KORF

Flight Track Log - Related Links

Times and Time Zones

All times are in EDT time to prevent confusion due to time zone crossing. See the SWA1688 flight status page for this flight to view local times or setup timezone preferences in your user account.

Time Position Orientation Groundspeed Altitude Reporting Facility
EDT Latitude Longitude Course Direction KTS MPH feet Rate Location/Type
11:04AM 39.1667 -76.7333 360° North 178 205 2,000  Level Potomac TRACON
11:04AM 39.1667 -76.7333 153° Southeast 178 205 2,000 2,160 Level Potomac TRACON
11:05AM 39.1167 -76.7000 153° Southeast 223 257 4,200 2,160 Climbing Potomac TRACON
11:05AM 39.1167 -76.7000 153° Southeast 223 257 4,200 2,880 Level Potomac TRACON
11:06AM 39.0667 -76.6333 134° Southeast 276 318 7,100 2,880 Climbing Potomac TRACON
11:06AM 39.0667 -76.6333 134° Southeast 276 318 7,100 3,540 Level Potomac TRACON
11:07AM 39.0167 -76.5833 142° Southeast 300 345 10,300 3,540 Climbing Potomac TRACON
11:07AM 39.0167 -76.5833 142° Southeast 300 345 10,300 1,740 Level Potomac TRACON
11:09AM 38.8411 -76.5083 162° South 355 409 14,000 1,740 Climbing Washington Center
11:09AM 38.8411 -76.5083 162° South 355 409 14,000 60 Level Washington Center
11:10AM 38.7614 -76.5633 208° Southwest 326 375 14,100 60 Climbing Washington Center
11:10AM 38.7614 -76.5633 208° Southwest 326 375 14,100  Level Washington Center
11:11AM 38.6839 -76.6261 212° Southwest 326 375 14,100  Level Washington Center
11:11AM 38.6839 -76.6261 212° Southwest 326 375 14,100  Level Washington Center
11:12AM 38.5881 -76.6117 173° South 325 374 14,100  Level Washington Center
11:12AM 38.5881 -76.6117 173° South 325 374 14,100 -120 Level Washington Center
11:13AM 38.4964 -76.5839 167° South 331 381 14,000 -120 Descending Washington Center
11:13AM 38.4964 -76.5839 167° South 331 381 14,000  Level Washington Center
11:14AM 38.4028 -76.5561 167° South 337 388 14,000  Level Washington Center
11:14AM 38.4028 -76.5561 167° South 337 388 14,000  Level Washington Center
11:15AM 38.3133 -76.5311 168° South 337 388 14,000  Level Washington Center
11:15AM 38.3133 -76.5311 168° South 337 388 14,000  Level Washington Center
11:16AM 38.2219 -76.5008 165° South 337 388 14,000  Level Washington Center
11:16AM 38.2219 -76.5008 165° South 337 388 14,000  Level Washington Center
11:17AM 38.1303 -76.4761 168° South 337 388 14,000  Level Washington Center
11:17AM 38.1303 -76.4761 168° South 337 388 14,000  Level Washington Center
11:18AM 38.0367 -76.4486 167° South 337 388 14,000  Level Washington Center
11:18AM 38.0367 -76.4486 167° South 337 388 14,000  Level Washington Center
11:19AM 37.9450 -76.4211 167° South 337 388 14,000  Level Washington Center
11:19AM 37.9450 -76.4211 167° South 337 388 14,000 180 Level Washington Center
11:19AM 37.8889 -76.4075 169° South 341 392 14,100 180 Climbing Washington Center
11:19AM 37.8889 -76.4075 169° South 341 392 14,100 -240 Level Washington Center
11:20AM 37.8514 -76.3967 167° South 337 388 14,000 -240 Descending Washington Center
11:20AM 37.8514 -76.3967 167° South 337 388 14,000 -1,140 Level Washington Center
11:26AM 37.3706 -76.2111 163° South 290 334 7,200 -1,260 Descending Washington Center
11:27AM 37.2978 -76.1844 164° South 280 322 5,700 -1,440 Descending Washington Center
11:28AM 37.2228 -76.1631 167° South 284 327 4,400 -1,200 Descending Washington Center
11:29AM 37.1519 -76.1469 170° South 257 296 3,300 -1,080 Descending Washington Center
11:30AM 37.0769 -76.1256 167° South 236 272 2,300 -840 Descending Washington Center
11:31AM 37.0247 -76.1200 175° South 209 241 1,700 -660 Descending Washington Center